sensor_id;sensor_type;location;lat;lon;timestamp;pressure;altitude;pressure_sealevel;temperature;humidity
8051;BME280;4068;42.158;24.732;2023-03-14T00:01:53;100151.09;;;1.60;88.38
8051;BME280;4068;42.158;24.732;2023-03-14T00:04:19;100145.13;;;1.54;88.72
8051;BME280;4068;42.158;24.732;2023-03-14T00:06:44;100149.72;;;1.48;88.31
8051;BME280;4068;42.158;24.732;2023-03-14T00:09:12;100147.47;;;1.37;88.98
8051;BME280;4068;42.158;24.732;2023-03-14T00:11:37;100137.34;;;1.26;89.47
8051;BME280;4068;42.158;24.732;2023-03-14T00:14:03;100140.22;;;1.18;90.81
8051;BME280;4068;42.158;24.732;2023-03-14T00:16:28;100106.97;;;0.95;91.78
8051;BME280;4068;42.158;24.732;2023-03-14T00:18:54;100140.22;;;1.18;92.22
8051;BME280;4068;42.158;24.732;2023-03-14T00:21:19;100132.47;;;1.15;92.82
8051;BME280;4068;42.158;24.732;2023-03-14T00:23:45;100099.66;;;1.07;93.66
8051;BME280;4068;42.158;24.732;2023-03-14T00:26:15;100119.31;;;1.18;94.76
8051;BME280;4068;42.158;24.732;2023-03-14T00:28:42;100126.25;;;1.19;95.60
8051;BME280;4068;42.158;24.732;2023-03-14T00:31:09;100117.59;;;1.17;96.90
8051;BME280;4068;42.158;24.732;2023-03-14T00:33:35;100114.28;;;1.12;97.85
8051;BME280;4068;42.158;24.732;2023-03-14T00:36:06;100110.94;;;1.09;99.73
8051;BME280;4068;42.158;24.732;2023-03-14T00:38:34;100096.34;;;1.01;100.00
8051;BME280;4068;42.158;24.732;2023-03-14T00:41:03;100105.19;;;0.97;100.00
8051;BME280;4068;42.158;24.732;2023-03-14T00:43:29;100096.47;;;0.97;100.00
8051;BME280;4068;42.158;24.732;2023-03-14T00:45:54;100095.47;;;1.01;100.00
8051;BME280;4068;42.158;24.732;2023-03-14T00:48:20;100094.22;;;0.86;100.00
8051;BME280;4068;42.158;24.732;2023-03-14T00:50:46;100097.84;;;0.82;100.00
8051;BME280;4068;42.158;24.732;2023-03-14T00:53:11;100090.25;;;0.74;100.00
8051;BME280;4068;42.158;24.732;2023-03-14T00:55:41;100090.25;;;0.74;100.00
8051;BME280;4068;42.158;24.732;2023-03-14T00:58:07;100079.25;;;0.64;100.00
8051;BME280;4068;42.158;24.732;2023-03-14T01:00:33;100079.28;;;0.63;100.00
8051;BME280;4068;42.158;24.732;2023-03-14T01:02:58;100073.25;;;0.61;100.00
8051;BME280;4068;42.158;24.732;2023-03-14T01:05:24;100069.22;;;0.50;100.00
8051;BME280;4068;42.158;24.732;2023-03-14T01:07:49;100037.56;;;0.33;100.00
8051;BME280;4068;42.158;24.732;2023-03-14T01:10:15;100063.31;;;0.44;100.00
8051;BME280;4068;42.158;24.732;2023-03-14T01:12:41;100053.91;;;0.38;100.00
8051;BME280;4068;42.158;24.732;2023-03-14T01:15:07;100056.53;;;0.38;100.00
8051;BME280;4068;42.158;24.732;2023-03-14T01:17:33;100033.44;;;0.26;100.00
8051;BME280;4068;42.158;24.732;2023-03-14T01:19:59;100014.44;;;0.21;100.00
8051;BME280;4068;42.158;24.732;2023-03-14T01:22:25;100053.75;;;0.44;100.00
8051;BME280;4068;42.158;24.732;2023-03-14T01:24:50;100052.81;;;0.45;100.00
8051;BME280;4068;42.158;24.732;2023-03-14T01:27:16;100047.75;;;0.41;100.00
8051;BME280;4068;42.158;24.732;2023-03-14T01:29:41;100045.41;;;0.33;100.00
8051;BME280;4068;42.158;24.732;2023-03-14T01:32:06;100049.56;;;0.39;100.00
8051;BME280;4068;42.158;24.732;2023-03-14T01:34:32;100053.75;;;0.44;100.00
8051;BME280;4068;42.158;24.732;2023-03-14T01:36:57;100058.97;;;0.44;100.00
8051;BME280;4068;42.158;24.732;2023-03-14T01:39:23;100046.91;;;0.40;100.00
8051;BME280;4068;42.158;24.732;2023-03-14T01:41:48;100052.72;;;0.48;100.00
8051;BME280;4068;42.158;24.732;2023-03-14T01:44:14;100049.13;;;0.52;100.00
8051;BME280;4068;42.158;24.732;2023-03-14T01:46:40;100041.31;;;0.52;100.00
8051;BME280;4068;42.158;24.732;2023-03-14T01:54:10;100043.13;;;0.50;100.00
8051;BME280;4068;42.158;24.732;2023-03-14T01:56:38;100038.22;;;0.40;100.00
8051;BME280;4068;42.158;24.732;2023-03-14T01:59:06;100038.00;;;0.47;100.00
8051;BME280;4068;42.158;24.732;2023-03-14T02:01:33;100035.59;;;0.40;100.00
8051;BME280;4068;42.158;24.732;2023-03-14T02:04:01;100024.44;;;0.36;100.00
8051;BME280;4068;42.158;24.732;2023-03-14T02:06:33;100031.56;;;0.29;100.00
8051;BME280;4068;42.158;24.732;2023-03-14T02:09:01;100013.59;;;0.20;100.00
8051;BME280;4068;42.158;24.732;2023-03-14T02:11:29;100025.63;;;0.26;100.00
8051;BME280;4068;42.158;24.732;2023-03-14T02:13:57;100032.47;;;0.28;100.00
8051;BME280;4068;42.158;24.732;2023-03-14T02:16:24;100019.72;;;0.19;100.00
8051;BME280;4068;42.158;24.732;2023-03-14T02:18:49;100022.19;;;0.24;100.00
8051;BME280;4068;42.158;24.732;2023-03-14T02:21:49;100024.69;;;0.27;100.00
8051;BME280;4068;42.158;24.732;2023-03-14T02:24:25;100008.25;;;0.25;100.00
8051;BME280;4068;42.158;24.732;2023-03-14T02:27:11;100022.19;;;0.24;100.00
8051;BME280;4068;42.158;24.732;2023-03-14T02:29:43;100022.03;;;0.28;100.00
8051;BME280;4068;42.158;24.732;2023-03-14T02:32:10;100020.41;;;0.24;100.00
8051;BME280;4068;42.158;24.732;2023-03-14T02:34:36;100031.63;;;0.28;100.00
8051;BME280;4068;42.158;24.732;2023-03-14T02:37:02;100032.63;;;0.24;100.00
8051;BME280;4068;42.158;24.732;2023-03-14T02:39:35;100023.25;;;0.16;100.00
8051;BME280;4068;42.158;24.732;2023-03-14T02:42:01;99993.25;;;0.03;100.00
8051;BME280;4068;42.158;24.732;2023-03-14T02:44:27;100017.63;;;0.30;100.00
8051;BME280;4068;42.158;24.732;2023-03-14T02:46:53;100003.88;;;0.25;100.00
8051;BME280;4068;42.158;24.732;2023-03-14T02:49:18;100022.66;;;0.37;100.00
8051;BME280;4068;42.158;24.732;2023-03-14T02:51:45;100023.84;;;0.26;100.00
8051;BME280;4068;42.158;24.732;2023-03-14T02:54:11;99995.47;;;0.15;100.00
8051;BME280;4068;42.158;24.732;2023-03-14T02:56:36;100035.81;;;0.33;100.00
8051;BME280;4068;42.158;24.732;2023-03-14T02:59:03;100034.09;;;0.32;100.00
8051;BME280;4068;42.158;24.732;2023-03-14T03:01:29;100034.19;;;0.29;100.00
8051;BME280;4068;42.158;24.732;2023-03-14T03:03:54;100032.47;;;0.28;100.00
8051;BME280;4068;42.158;24.732;2023-03-14T03:06:20;100034.19;;;0.29;100.00
8051;BME280;4068;42.158;24.732;2023-03-14T03:08:45;100050.78;;;0.27;100.00
8051;BME280;4068;42.158;24.732;2023-03-14T03:11:11;100053.47;;;0.24;100.00
8051;BME280;4068;42.158;24.732;2023-03-14T03:13:36;100043.34;;;0.14;100.00
8051;BME280;4068;42.158;24.732;2023-03-14T03:16:02;100041.88;;;0.04;100.00
8051;BME280;4068;42.158;24.732;2023-03-14T03:18:28;100029.38;;;-0.14;100.00
8051;BME280;4068;42.158;24.732;2023-03-14T03:20:53;100047.31;;;-0.04;100.00
8051;BME280;4068;42.158;24.732;2023-03-14T03:23:19;100035.41;;;-0.12;100.00
8051;BME280;4068;42.158;24.732;2023-03-14T03:25:50;100040.75;;;-0.17;100.00
8051;BME280;4068;42.158;24.732;2023-03-14T03:28:17;100028.00;;;-0.28;100.00
8051;BME280;4068;42.158;24.732;2023-03-14T03:30:42;100010.84;;;-0.35;100.00
8051;BME280;4068;42.158;24.732;2023-03-14T03:33:08;100034.16;;;-0.30;100.00
8051;BME280;4068;42.158;24.732;2023-03-14T03:35:34;100031.09;;;-0.45;100.00
8051;BME280;4068;42.158;24.732;2023-03-14T03:38:00;100029.50;;;-0.50;100.00
8051;BME280;4068;42.158;24.732;2023-03-14T03:40:25;100031.44;;;-0.59;100.00
8051;BME280;4068;42.158;24.732;2023-03-14T03:42:51;100029.81;;;-0.63;100.00
8051;BME280;4068;42.158;24.732;2023-03-14T03:45:16;100032.41;;;-0.61;100.00
8051;BME280;4068;42.158;24.732;2023-03-14T03:47:42;100017.25;;;-0.47;100.00
8051;BME280;4068;42.158;24.732;2023-03-14T03:50:07;100031.50;;;-0.29;100.00
8051;BME280;4068;42.158;24.732;2023-03-14T03:52:33;100017.78;;;-0.34;100.00
8051;BME280;4068;42.158;24.732;2023-03-14T03:54:58;100019.47;;;-0.33;100.00
8051;BME280;4068;42.158;24.732;2023-03-14T03:57:24;99987.91;;;-0.54;100.00
8051;BME280;4068;42.158;24.732;2023-03-14T03:59:49;99994.69;;;-0.48;100.00
8051;BME280;4068;42.158;24.732;2023-03-14T04:02:14;100019.59;;;-0.38;100.00
8051;BME280;4068;42.158;24.732;2023-03-14T04:04:40;100015.06;;;-0.31;100.00
8051;BME280;4068;42.158;24.732;2023-03-14T04:07:05;100013.81;;;0.12;100.00
8051;BME280;4068;42.158;24.732;2023-03-14T04:09:31;99974.34;;;-0.05;100.00
8051;BME280;4068;42.158;24.732;2023-03-14T04:11:56;99979.63;;;-0.07;100.00
8051;BME280;4068;42.158;24.732;2023-03-14T04:14:22;99985.69;;;-0.06;100.00
8051;BME280;4068;42.158;24.732;2023-03-14T04:16:48;100008.19;;;0.26;100.00
8051;BME280;4068;42.158;24.732;2023-03-14T04:19:14;100013.50;;;0.23;100.00
8051;BME280;4068;42.158;24.732;2023-03-14T04:21:39;100006.09;;;0.09;100.00
8051;BME280;4068;42.158;24.732;2023-03-14T04:24:09;100007.03;;;0.07;100.00
8051;BME280;4068;42.158;24.732;2023-03-14T04:26:35;100007.06;;;0.05;100.00
8051;BME280;4068;42.158;24.732;2023-03-14T04:29:00;100004.47;;;0.05;100.00
8051;BME280;4068;42.158;24.732;2023-03-14T04:31:26;99996.00;;;-0.03;100.00
8051;BME280;4068;42.158;24.732;2023-03-14T04:33:51;99954.63;;;-0.14;100.00
8051;BME280;4068;42.158;24.732;2023-03-14T04:36:17;99980.41;;;-0.05;100.00
8051;BME280;4068;42.158;24.732;2023-03-14T04:38:42;99969.53;;;-0.19;100.00
8051;BME280;4068;42.158;24.732;2023-03-14T04:41:07;99991.78;;;-0.07;100.00
8051;BME280;4068;42.158;24.732;2023-03-14T04:43:33;99975.53;;;-0.15;100.00
8051;BME280;4068;42.158;24.732;2023-03-14T04:45:59;99990.00;;;-0.05;100.00
8051;BME280;4068;42.158;24.732;2023-03-14T04:48:25;99983.75;;;0.01;100.00
8051;BME280;4068;42.158;24.732;2023-03-14T04:50:51;99996.56;;;0.08;100.00
8051;BME280;4068;42.158;24.732;2023-03-14T04:53:17;99997.22;;;0.15;100.00
8051;BME280;4068;42.158;24.732;2023-03-14T04:55:54;99989.78;;;0.31;100.00
8051;BME280;4068;42.158;24.732;2023-03-14T04:58:20;100004.75;;;0.52;100.00
8051;BME280;4068;42.158;24.732;2023-03-14T05:00:46;100013.94;;;0.66;100.00
8051;BME280;4068;42.158;24.732;2023-03-14T05:03:12;100010.38;;;0.67;100.00
8051;BME280;4068;42.158;24.732;2023-03-14T05:05:39;100014.53;;;0.74;100.00
8051;BME280;4068;42.158;24.732;2023-03-14T05:08:04;100014.00;;;0.90;100.00
8051;BME280;4068;42.158;24.732;2023-03-14T05:10:30;100021.50;;;1.00;100.00
8051;BME280;4068;42.158;24.732;2023-03-14T05:12:55;100026.31;;;1.13;100.00
8051;BME280;4068;42.158;24.732;2023-03-14T05:15:21;100016.78;;;1.12;99.12
8051;BME280;4068;42.158;24.732;2023-03-14T05:17:46;100035.84;;;1.14;99.26
8051;BME280;4068;42.158;24.732;2023-03-14T05:20:12;100025.50;;;1.11;98.33
8051;BME280;4068;42.158;24.732;2023-03-14T05:22:41;100008.38;;;1.02;97.93
8051;BME280;4068;42.158;24.732;2023-03-14T05:25:07;100016.31;;;1.26;97.65
8051;BME280;4068;42.158;24.732;2023-03-14T05:27:33;100021.25;;;1.33;97.70
8051;BME280;4068;42.158;24.732;2023-03-14T05:29:59;99994.28;;;1.33;96.93
8051;BME280;4068;42.158;24.732;2023-03-14T05:32:24;100018.75;;;1.55;95.35
8051;BME280;4068;42.158;24.732;2023-03-14T05:34:50;100042.28;;;1.79;92.74
8051;BME280;4068;42.158;24.732;2023-03-14T05:37:15;100022.34;;;1.77;92.10
8051;BME280;4068;42.158;24.732;2023-03-14T05:39:41;100026.34;;;1.87;92.13
8051;BME280;4068;42.158;24.732;2023-03-14T05:42:06;100038.09;;;1.99;91.61
8051;BME280;4068;42.158;24.732;2023-03-14T05:44:31;100035.75;;;2.15;91.27
8051;BME280;4068;42.158;24.732;2023-03-14T05:46:57;100033.34;;;2.32;90.16
8051;BME280;4068;42.158;24.732;2023-03-14T05:49:22;100035.56;;;2.43;88.80
8051;BME280;4068;42.158;24.732;2023-03-14T05:51:48;100002.94;;;2.30;88.05
8051;BME280;4068;42.158;24.732;2023-03-14T05:54:13;100008.16;;;2.30;86.78
8051;BME280;4068;42.158;24.732;2023-03-14T05:56:39;100040.69;;;2.68;85.97
8051;BME280;4068;42.158;24.732;2023-03-14T05:59:04;100047.09;;;2.61;85.64
8051;BME280;4068;42.158;24.732;2023-03-14T06:01:30;100045.00;;;2.69;86.42
8051;BME280;4068;42.158;24.732;2023-03-14T06:03:55;100014.16;;;2.76;85.39
8051;BME280;4068;42.158;24.732;2023-03-14T06:06:21;100039.63;;;2.94;84.90
8051;BME280;4068;42.158;24.732;2023-03-14T06:08:46;100039.38;;;3.01;84.27
8051;BME280;4068;42.158;24.732;2023-03-14T06:11:12;99998.72;;;2.70;83.64
8051;BME280;4068;42.158;24.732;2023-03-14T06:13:37;100011.69;;;2.93;83.25
8051;BME280;4068;42.158;24.732;2023-03-14T06:16:03;100033.47;;;3.16;83.37
8051;BME280;4068;42.158;24.732;2023-03-14T06:18:28;100033.03;;;3.27;83.10
8051;BME280;4068;42.158;24.732;2023-03-14T06:20:54;100004.34;;;3.24;82.31
8051;BME280;4068;42.158;24.732;2023-03-14T06:23:21;100014.50;;;3.32;82.20
8051;BME280;4068;42.158;24.732;2023-03-14T06:25:46;100019.53;;;3.36;81.01
8051;BME280;4068;42.158;24.732;2023-03-14T06:28:12;99997.75;;;3.55;81.37
8051;BME280;4068;42.158;24.732;2023-03-14T06:30:37;100017.91;;;3.73;81.37
8051;BME280;4068;42.158;24.732;2023-03-14T06:33:03;99998.38;;;3.80;80.12
8051;BME280;4068;42.158;24.732;2023-03-14T06:35:28;100015.41;;;3.91;79.05
8051;BME280;4068;42.158;24.732;2023-03-14T06:37:54;100009.44;;;3.87;78.62
8051;BME280;4068;42.158;24.732;2023-03-14T06:40:19;100019.41;;;3.79;79.37
8051;BME280;4068;42.158;24.732;2023-03-14T06:42:45;100001.25;;;3.74;79.01
8051;BME280;4068;42.158;24.732;2023-03-14T06:45:11;100019.72;;;3.92;79.73
8051;BME280;4068;42.158;24.732;2023-03-14T06:47:36;99980.22;;;3.95;79.12
8051;BME280;4068;42.158;24.732;2023-03-14T06:50:05;100011.50;;;4.19;79.15
8051;BME280;4068;42.158;24.732;2023-03-14T06:52:31;100022.56;;;4.25;77.54
8051;BME280;4068;42.158;24.732;2023-03-14T06:54:57;100012.16;;;4.24;78.27
8051;BME280;4068;42.158;24.732;2023-03-14T06:57:22;100000.31;;;4.15;77.98
8051;BME280;4068;42.158;24.732;2023-03-14T06:59:47;100000.19;;;4.36;78.85
8051;BME280;4068;42.158;24.732;2023-03-14T07:02:13;100006.44;;;4.33;76.55
8051;BME280;4068;42.158;24.732;2023-03-14T07:04:38;99998.16;;;4.42;76.57
8051;BME280;4068;42.158;24.732;2023-03-14T07:07:04;99985.00;;;4.42;76.25
8051;BME280;4068;42.158;24.732;2023-03-14T07:09:31;99993.78;;;4.60;75.52
8051;BME280;4068;42.158;24.732;2023-03-14T07:11:56;99991.00;;;4.63;75.25
8051;BME280;4068;42.158;24.732;2023-03-14T07:14:21;99983.47;;;4.75;73.96
8051;BME280;4068;42.158;24.732;2023-03-14T07:16:47;99952.69;;;4.59;73.48
8051;BME280;4068;42.158;24.732;2023-03-14T07:19:12;99941.34;;;4.40;74.80
8051;BME280;4068;42.158;24.732;2023-03-14T07:21:38;99967.38;;;4.81;75.36
8051;BME280;4068;42.158;24.732;2023-03-14T07:24:03;99978.28;;;5.08;74.34
8051;BME280;4068;42.158;24.732;2023-03-14T07:26:29;99952.03;;;5.24;72.54
8051;BME280;4068;42.158;24.732;2023-03-14T07:28:54;99961.03;;;5.53;70.83
8051;BME280;4068;42.158;24.732;2023-03-14T07:31:20;99951.19;;;5.57;70.24
8051;BME280;4068;42.158;24.732;2023-03-14T07:33:45;99933.31;;;5.64;68.34
8051;BME280;4068;42.158;24.732;2023-03-14T07:36:10;99935.75;;;5.67;67.02
8051;BME280;4068;42.158;24.732;2023-03-14T07:38:36;99964.41;;;5.89;66.21
8051;BME280;4068;42.158;24.732;2023-03-14T07:41:04;99965.72;;;5.98;67.32
8051;BME280;4068;42.158;24.732;2023-03-14T07:43:30;99969.72;;;6.21;64.86
8051;BME280;4068;42.158;24.732;2023-03-14T07:45:56;99960.06;;;6.21;62.93
8051;BME280;4068;42.158;24.732;2023-03-14T07:48:21;99956.97;;;6.29;63.56
8051;BME280;4068;42.158;24.732;2023-03-14T07:50:51;99938.81;;;6.25;62.11
8051;BME280;4068;42.158;24.732;2023-03-14T07:53:17;99953.56;;;6.43;61.96
8051;BME280;4068;42.158;24.732;2023-03-14T07:55:42;99944.66;;;6.46;60.68
8051;BME280;4068;42.158;24.732;2023-03-14T07:58:07;99952.53;;;6.62;60.78
8051;BME280;4068;42.158;24.732;2023-03-14T08:00:33;99930.97;;;6.69;60.92
8051;BME280;4068;42.158;24.732;2023-03-14T08:02:58;99953.34;;;6.93;58.68
8051;BME280;4068;42.158;24.732;2023-03-14T08:05:24;99951.03;;;7.02;58.13
8051;BME280;4068;42.158;24.732;2023-03-14T08:07:49;99940.50;;;7.17;57.38
8051;BME280;4068;42.158;24.732;2023-03-14T08:10:15;99935.81;;;7.22;57.46
8051;BME280;4068;42.158;24.732;2023-03-14T08:12:46;99934.22;;;7.34;55.85
8051;BME280;4068;42.158;24.732;2023-03-14T08:15:12;99916.50;;;7.36;55.58
8051;BME280;4068;42.158;24.732;2023-03-14T08:17:37;99934.16;;;7.50;55.50
8051;BME280;4068;42.158;24.732;2023-03-14T08:20:03;99919.78;;;7.39;55.28
8051;BME280;4068;42.158;24.732;2023-03-14T08:22:32;99908.88;;;7.46;54.76
8051;BME280;4068;42.158;24.732;2023-03-14T08:24:57;99930.16;;;7.71;53.88
8051;BME280;4068;42.158;24.732;2023-03-14T08:27:23;99921.94;;;7.76;53.40
8051;BME280;4068;42.158;24.732;2023-03-14T08:29:48;99928.53;;;7.83;53.36
8051;BME280;4068;42.158;24.732;2023-03-14T08:32:13;99925.59;;;7.88;53.21
8051;BME280;4068;42.158;24.732;2023-03-14T08:34:39;99919.72;;;8.11;53.06
8051;BME280;4068;42.158;24.732;2023-03-14T08:37:05;99923.41;;;8.36;52.08
8051;BME280;4068;42.158;24.732;2023-03-14T08:39:30;99905.34;;;8.43;51.68
8051;BME280;4068;42.158;24.732;2023-03-14T08:41:56;99885.75;;;8.47;51.88
8051;BME280;4068;42.158;24.732;2023-03-14T08:44:21;99914.25;;;8.82;50.52
8051;BME280;4068;42.158;24.732;2023-03-14T08:46:46;99895.75;;;8.95;49.72
8051;BME280;4068;42.158;24.732;2023-03-14T08:49:12;99904.78;;;9.05;48.58
8051;BME280;4068;42.158;24.732;2023-03-14T08:51:39;99894.91;;;9.07;49.09
8051;BME280;4068;42.158;24.732;2023-03-14T08:54:04;99853.41;;;8.95;49.34
8051;BME280;4068;42.158;24.732;2023-03-14T08:56:30;99876.50;;;9.31;49.10
8051;BME280;4068;42.158;24.732;2023-03-14T08:58:55;99854.81;;;9.26;48.66
8051;BME280;4068;42.158;24.732;2023-03-14T09:01:21;99863.81;;;9.24;47.57
8051;BME280;4068;42.158;24.732;2023-03-14T09:03:49;99858.06;;;9.43;48.09
8051;BME280;4068;42.158;24.732;2023-03-14T09:06:15;99859.00;;;9.42;47.26
8051;BME280;4068;42.158;24.732;2023-03-14T09:08:43;99852.44;;;9.35;47.38
8051;BME280;4068;42.158;24.732;2023-03-14T09:11:09;99844.81;;;9.43;46.75
8051;BME280;4068;42.158;24.732;2023-03-14T09:13:34;99823.75;;;9.41;47.14
8051;BME280;4068;42.158;24.732;2023-03-14T09:16:00;99844.75;;;9.68;46.87
8051;BME280;4068;42.158;24.732;2023-03-14T09:18:26;99830.06;;;9.52;45.87
8051;BME280;4068;42.158;24.732;2023-03-14T09:20:51;99838.56;;;9.57;45.58
8051;BME280;4068;42.158;24.732;2023-03-14T09:23:17;99826.03;;;9.59;45.88
8051;BME280;4068;42.158;24.732;2023-03-14T09:25:42;99827.22;;;9.55;45.65
8051;BME280;4068;42.158;24.732;2023-03-14T09:28:07;99817.84;;;9.25;46.03
8051;BME280;4068;42.158;24.732;2023-03-14T09:30:33;99802.25;;;9.46;45.69
8051;BME280;4068;42.158;24.732;2023-03-14T09:32:58;99810.97;;;9.72;45.39
8051;BME280;4068;42.158;24.732;2023-03-14T09:35:25;99768.59;;;9.72;44.77
8051;BME280;4068;42.158;24.732;2023-03-14T09:37:50;99794.91;;;9.87;44.68
8051;BME280;4068;42.158;24.732;2023-03-14T09:40:17;99797.59;;;9.74;44.75
8051;BME280;4068;42.158;24.732;2023-03-14T09:42:46;99796.59;;;9.88;43.74
8051;BME280;4068;42.158;24.732;2023-03-14T09:45:18;99763.47;;;9.82;43.70
8051;BME280;4068;42.158;24.732;2023-03-14T09:47:47;99764.75;;;9.76;42.88
8051;BME280;4068;42.158;24.732;2023-03-14T09:50:16;99790.22;;;9.90;43.18
8051;BME280;4068;42.158;24.732;2023-03-14T09:52:47;99795.72;;;10.11;43.21
8051;BME280;4068;42.158;24.732;2023-03-14T09:55:18;99788.25;;;10.05;43.37
8051;BME280;4068;42.158;24.732;2023-03-14T09:57:45;99777.81;;;10.15;43.10
8051;BME280;4068;42.158;24.732;2023-03-14T10:00:14;99778.63;;;10.15;43.55
8051;BME280;4068;42.158;24.732;2023-03-14T10:02:53;99774.53;;;10.11;43.73
8051;BME280;4068;42.158;24.732;2023-03-14T10:05:22;99774.56;;;10.23;44.08
8051;BME280;4068;42.158;24.732;2023-03-14T10:07:48;99756.59;;;10.39;43.46
8051;BME280;4068;42.158;24.732;2023-03-14T10:10:18;99760.94;;;10.51;43.28
8051;BME280;4068;42.158;24.732;2023-03-14T10:12:46;99752.28;;;10.61;43.08
8051;BME280;4068;42.158;24.732;2023-03-14T10:15:13;99741.19;;;10.78;42.52
8051;BME280;4068;42.158;24.732;2023-03-14T10:17:52;99715.63;;;10.66;41.25
8051;BME280;4068;42.158;24.732;2023-03-14T10:20:40;99688.13;;;10.67;41.01
8051;BME280;4068;42.158;24.732;2023-03-14T10:23:23;99708.97;;;11.05;41.27
8051;BME280;4068;42.158;24.732;2023-03-14T10:26:12;99704.72;;;11.26;40.87
8051;BME280;4068;42.158;24.732;2023-03-14T10:28:51;99705.88;;;11.44;40.91
8051;BME280;4068;42.158;24.732;2023-03-14T10:31:18;99662.09;;;11.38;40.06
8051;BME280;4068;42.158;24.732;2023-03-14T10:34:01;99668.13;;;11.40;39.17
8051;BME280;4068;42.158;24.732;2023-03-14T10:36:29;99699.69;;;11.55;39.15
8051;BME280;4068;42.158;24.732;2023-03-14T10:41:50;99676.50;;;11.57;39.15
8051;BME280;4068;42.158;24.732;2023-03-14T10:44:20;99662.13;;;11.60;39.17
8051;BME280;4068;42.158;24.732;2023-03-14T10:46:56;99638.75;;;11.53;39.53
8051;BME280;4068;42.158;24.732;2023-03-14T10:49:35;99651.88;;;11.87;39.07
8051;BME280;4068;42.158;24.732;2023-03-14T10:54:33;99643.72;;;12.00;39.43
8051;BME280;4068;42.158;24.732;2023-03-14T10:57:01;99607.38;;;11.89;39.77
8051;BME280;4068;42.158;24.732;2023-03-14T10:59:36;99629.38;;;12.13;39.81
8051;BME280;4068;42.158;24.732;2023-03-14T11:07:37;99614.56;;;12.20;39.37
8051;BME280;4068;42.158;24.732;2023-03-14T11:23:51;99546.69;;;12.56;38.94
8051;BME280;4068;42.158;24.732;2023-03-14T11:26:35;99557.38;;;12.66;38.39
8051;BME280;4068;42.158;24.732;2023-03-14T11:29:16;99545.13;;;12.44;38.70
8051;BME280;4068;42.158;24.732;2023-03-14T11:31:45;99536.50;;;12.62;39.13
8051;BME280;4068;42.158;24.732;2023-03-14T11:34:22;99536.50;;;12.62;38.55
8051;BME280;4068;42.158;24.732;2023-03-14T11:37:04;99507.19;;;12.42;38.63
8051;BME280;4068;42.158;24.732;2023-03-14T11:39:39;99510.59;;;12.64;38.66
8051;BME280;4068;42.158;24.732;2023-03-14T11:42:12;99504.59;;;12.71;38.54
8051;BME280;4068;42.158;24.732;2023-03-14T11:44:40;99504.47;;;12.73;38.45
8051;BME280;4068;42.158;24.732;2023-03-14T11:49:54;99481.91;;;12.77;38.43
8051;BME280;4068;42.158;24.732;2023-03-14T11:52:32;99474.75;;;12.58;38.65
8051;BME280;4068;42.158;24.732;2023-03-14T11:55:24;99468.03;;;12.73;38.75
8051;BME280;4068;42.158;24.732;2023-03-14T11:57:53;99426.44;;;12.63;38.60
8051;BME280;4068;42.158;24.732;2023-03-14T12:00:23;99457.41;;;12.93;38.89
8051;BME280;4068;42.158;24.732;2023-03-14T12:08:50;99431.31;;;12.97;39.46
8051;BME280;4068;42.158;24.732;2023-03-14T12:14:32;99412.06;;;13.42;39.09
8051;BME280;4068;42.158;24.732;2023-03-14T12:17:07;99400.25;;;13.54;38.66
8051;BME280;4068;42.158;24.732;2023-03-14T12:19:43;99389.59;;;13.82;38.33
8051;BME280;4068;42.158;24.732;2023-03-14T12:22:26;99389.25;;;13.95;38.29
8051;BME280;4068;42.158;24.732;2023-03-14T12:25:16;99388.13;;;13.97;38.51
8051;BME280;4068;42.158;24.732;2023-03-14T12:28:03;99368.94;;;14.12;37.92
8051;BME280;4068;42.158;24.732;2023-03-14T12:35:45;99345.00;;;13.84;40.00
8051;BME280;4068;42.158;24.732;2023-03-14T12:38:18;99332.38;;;14.04;40.21
8051;BME280;4068;42.158;24.732;2023-03-14T12:40:56;99354.84;;;14.38;38.76
8051;BME280;4068;42.158;24.732;2023-03-14T12:43:27;99337.47;;;14.52;38.66
8051;BME280;4068;42.158;24.732;2023-03-14T12:46:25;99360.72;;;14.77;38.12
8051;BME280;4068;42.158;24.732;2023-03-14T12:51:35;99354.13;;;14.45;38.62
8051;BME280;4068;42.158;24.732;2023-03-14T12:54:20;99338.88;;;14.20;38.56
8051;BME280;4068;42.158;24.732;2023-03-14T13:00:16;99311.25;;;13.75;39.49
8051;BME280;4068;42.158;24.732;2023-03-14T13:02:38;99333.06;;;14.06;39.24
8051;BME280;4068;42.158;24.732;2023-03-14T13:05:21;99332.47;;;14.12;39.25
8051;BME280;4068;42.158;24.732;2023-03-14T13:10:21;99298.25;;;14.08;39.12
8051;BME280;4068;42.158;24.732;2023-03-14T13:13:03;99318.75;;;14.07;39.54
8051;BME280;4068;42.158;24.732;2023-03-14T13:15:41;99311.97;;;14.13;39.81
8051;BME280;4068;42.158;24.732;2023-03-14T13:18:11;99312.06;;;14.21;39.75
8051;BME280;4068;42.158;24.732;2023-03-14T13:20:44;99292.75;;;14.27;39.26
8051;BME280;4068;42.158;24.732;2023-03-14T13:23:25;99302.38;;;14.20;39.26
8051;BME280;4068;42.158;24.732;2023-03-14T13:25:51;99292.75;;;14.27;39.47
8051;BME280;4068;42.158;24.732;2023-03-14T13:28:17;99279.00;;;14.14;39.50
8051;BME280;4068;42.158;24.732;2023-03-14T13:30:45;99268.00;;;13.99;39.61
8051;BME280;4068;42.158;24.732;2023-03-14T13:33:14;99283.84;;;14.01;39.39
8051;BME280;4068;42.158;24.732;2023-03-14T13:35:43;99268.47;;;13.94;39.42
8051;BME280;4068;42.158;24.732;2023-03-14T13:38:18;99279.13;;;13.94;39.37
8051;BME280;4068;42.158;24.732;2023-03-14T13:40:45;99277.00;;;13.80;39.81
8051;BME280;4068;42.158;24.732;2023-03-14T13:43:23;99259.91;;;13.91;39.87
8051;BME280;4068;42.158;24.732;2023-03-14T13:45:54;99254.38;;;13.84;40.01
8051;BME280;4068;42.158;24.732;2023-03-14T13:48:21;99222.31;;;13.76;39.62
8051;BME280;4068;42.158;24.732;2023-03-14T13:50:53;99241.38;;;13.81;39.38
8051;BME280;4068;42.158;24.732;2023-03-14T13:53:19;99241.22;;;13.83;40.01
8051;BME280;4068;42.158;24.732;2023-03-14T13:55:44;99226.66;;;13.77;39.85
8051;BME280;4068;42.158;24.732;2023-03-14T13:58:29;99232.34;;;13.82;39.59
8051;BME280;4068;42.158;24.732;2023-03-14T14:00:59;99227.41;;;13.87;39.53
8051;BME280;4068;42.158;24.732;2023-03-14T14:03:26;99203.66;;;13.94;39.83
8051;BME280;4068;42.158;24.732;2023-03-14T14:05:55;99218.66;;;14.13;39.20
8051;BME280;4068;42.158;24.732;2023-03-14T14:08:20;99205.53;;;14.20;39.44
8051;BME280;4068;42.158;24.732;2023-03-14T14:10:47;99182.94;;;14.32;39.54